Time;durP1;ratioP1;P1;durP2;ratioP2;P2;SDS_P1;SDS_P2;PMS_P1;PMS_P2;Temp;Humidity;BMP_temperature;BMP_pressure;BME280_temperature;BME280_humidity;BME280_pressure;Samples;Min_cycle;Max_cycle;Signal;HPM_P1;HPM_P2
2021/11/15 05:01:42;;;;;;;18.37;12.70;;;8.90;99.90;;;;;;5443089;23;20571;-69
2021/11/15 05:04:09;;;;;;;16.90;13.33;;;8.80;99.90;;;;;;5015406;28;20475;-69
2021/11/15 05:06:35;;;;;;;17.80;13.27;;;8.90;99.90;;;;;;5015993;28;20453;-69
2021/11/15 05:09:03;;;;;;;17.97;13.43;;;8.80;99.90;;;;;;5015443;28;20445;-69
2021/11/15 05:11:29;;;;;;;19.33;12.80;;;8.90;99.90;;;;;;5015223;28;20469;-69
2021/11/15 05:13:56;;;;;;;15.57;12.87;;;8.90;99.90;;;;;;5015224;28;20583;-70
2021/11/15 05:16:23;;;;;;;17.43;12.90;;;8.90;99.90;;;;;;5015080;28;20464;-69
2021/11/15 05:18:51;;;;;;;19.47;13.60;;;8.90;99.90;;;;;;5015292;28;20461;-69
2021/11/15 05:21:18;;;;;;;19.63;13.80;;;8.80;99.90;;;;;;5014947;28;20478;-68
2021/11/15 05:23:45;;;;;;;16.77;12.80;;;8.90;99.90;;;;;;5014961;28;20491;-70
2021/11/15 05:26:12;;;;;;;17.97;13.20;;;8.90;99.90;;;;;;5014943;28;20480;-70
2021/11/15 05:28:39;;;;;;;16.53;12.90;;;8.90;99.90;;;;;;5015016;28;20449;-70
2021/11/15 05:31:05;;;;;;;14.67;12.53;;;8.90;99.90;;;;;;5014885;28;20838;-70
2021/11/15 05:33:32;;;;;;;17.10;13.20;;;8.80;99.90;;;;;;5014753;28;20832;-71
2021/11/15 05:36:01;;;;;;;16.90;13.07;;;8.70;99.90;;;;;;5014953;28;20468;-70
2021/11/15 05:38:28;;;;;;;16.60;13.20;;;8.80;99.90;;;;;;5015179;28;20780;-70
2021/11/15 05:40:55;;;;;;;15.43;12.20;;;8.80;99.90;;;;;;5015157;28;20840;-70
2021/11/15 05:43:23;;;;;;;15.90;11.30;;;8.80;99.90;;;;;;5014842;28;20498;-70
2021/11/15 05:45:50;;;;;;;13.83;12.13;;;8.80;99.90;;;;;;5015952;28;20856;-70
2021/11/15 05:48:16;;;;;;;15.80;12.67;;;8.70;99.90;;;;;;5015028;28;20464;-69
2021/11/15 05:50:43;;;;;;;15.23;11.37;;;8.60;99.90;;;;;;5014727;28;20480;-70
2021/11/15 05:53:11;;;;;;;14.40;11.50;;;8.70;99.90;;;;;;5015282;28;20486;-71
2021/11/15 05:55:38;;;;;;;15.50;12.33;;;8.60;99.90;;;;;;5016262;28;20656;-69
2021/11/15 05:58:05;;;;;;;14.93;11.30;;;8.60;99.90;;;;;;5015835;28;20457;-69
2021/11/15 06:00:32;;;;;;;14.50;11.87;;;8.60;99.90;;;;;;5016081;28;21306;-69
2021/11/15 06:02:59;;;;;;;14.37;11.07;;;8.60;99.90;;;;;;5015466;28;20444;-69
2021/11/15 06:05:26;;;;;;;19.53;12.30;;;8.80;99.90;;;;;;5014707;28;20458;-69
2021/11/15 06:07:53;;;;;;;13.67;11.20;;;9.00;99.90;;;;;;5014769;28;20456;-70
2021/11/15 06:10:22;;;;;;;14.00;11.77;;;9.20;99.90;;;;;;5014942;28;20456;-68
2021/11/15 06:12:49;;;;;;;14.13;11.33;;;9.40;99.90;;;;;;5014694;28;20481;-68
2021/11/15 06:15:18;;;;;;;13.93;10.40;;;9.50;99.90;;;;;;5014447;28;20461;-68
2021/11/15 06:17:45;;;;;;;13.60;10.63;;;9.60;99.90;;;;;;5015126;28;20457;-70
2021/11/15 06:20:13;;;;;;;11.57;9.77;;;9.60;99.90;;;;;;5013863;28;20454;-69
2021/11/15 06:22:41;;;;;;;11.37;9.73;;;9.90;99.90;;;;;;5014908;28;20493;-69
2021/11/15 06:25:10;;;;;;;12.53;10.30;;;9.80;99.90;;;;;;5018526;28;20449;-70
2021/11/15 06:27:39;;;;;;;12.93;10.87;;;9.70;99.90;;;;;;5018451;28;20445;-70
2021/11/15 06:30:08;;;;;;;12.60;10.10;;;9.60;99.90;;;;;;5030258;28;20449;-70
2021/11/15 06:32:35;;;;;;;14.20;11.30;;;9.50;99.90;;;;;;5021730;28;20473;-70
2021/11/15 06:35:01;;;;;;;12.77;10.63;;;9.40;99.90;;;;;;5021719;28;20457;-70
2021/11/15 06:37:31;;;;;;;12.93;11.53;;;9.30;99.90;;;;;;5024193;28;20464;-71
2021/11/15 06:39:58;;;;;;;12.77;10.60;;;9.30;99.90;;;;;;5021783;28;20449;-70
2021/11/15 06:42:24;;;;;;;11.67;10.30;;;9.30;99.90;;;;;;5019309;28;20480;-71
2021/11/15 06:44:53;;;;;;;15.53;10.77;;;9.20;99.90;;;;;;5018979;28;20537;-69
2021/11/15 06:47:20;;;;;;;13.77;10.30;;;9.10;99.90;;;;;;5018894;28;20449;-69
2021/11/15 06:49:51;;;;;;;13.20;11.00;;;9.10;99.90;;;;;;5019700;28;20940;-69
2021/11/15 06:52:18;;;;;;;16.70;11.73;;;9.10;99.90;;;;;;5018656;28;20834;-71
2021/11/15 06:54:44;;;;;;;13.50;10.57;;;8.90;99.90;;;;;;5018857;28;20485;-71
2021/11/15 06:57:11;;;;;;;14.80;10.87;;;8.90;99.90;;;;;;5018817;28;20449;-70
2021/11/15 06:59:38;;;;;;;14.40;10.17;;;8.90;99.90;;;;;;5018291;28;20452;-70
2021/11/15 07:02:06;;;;;;;14.17;12.00;;;8.90;99.90;;;;;;5017942;28;20491;-69
2021/11/15 07:04:33;;;;;;;13.50;11.50;;;8.80;99.90;;;;;;5018208;28;20456;-70
2021/11/15 07:07:00;;;;;;;14.50;11.40;;;8.80;99.90;;;;;;5018003;28;20449;-69
2021/11/15 07:09:26;;;;;;;14.13;10.97;;;8.80;99.90;;;;;;5018079;28;20456;-70
2021/11/15 07:11:54;;;;;;;15.27;10.53;;;8.80;99.90;;;;;;5017705;28;20477;-67
2021/11/15 07:14:21;;;;;;;13.70;10.23;;;8.80;99.90;;;;;;5017928;28;20996;-69
2021/11/15 07:16:48;;;;;;;13.80;10.83;;;9.30;99.90;;;;;;5017713;28;20939;-71
2021/11/15 07:19:16;;;;;;;13.60;11.07;;;9.50;99.90;;;;;;5018279;28;20453;-69
2021/11/15 07:21:43;;;;;;;12.67;10.50;;;9.70;99.90;;;;;;5017500;28;20553;-69
2021/11/15 07:24:10;;;;;;;11.30;10.17;;;9.80;99.90;;;;;;5017377;28;20443;-69
2021/11/15 07:26:37;;;;;;;13.30;10.07;;;9.90;99.90;;;;;;5017920;28;20480;-69
2021/11/15 07:29:03;;;;;;;10.27;9.27;;;10.20;99.90;;;;;;5020353;28;20465;-70
2021/11/15 07:31:31;;;;;;;11.40;9.77;;;10.30;99.90;;;;;;5034378;28;20477;-70
2021/11/15 07:33:58;;;;;;;11.63;10.43;;;10.30;99.90;;;;;;5030719;28;20486;-67
2021/11/15 07:36:27;;;;;;;14.40;9.33;;;10.50;99.90;;;;;;5017136;28;20515;-68
2021/11/15 07:38:53;;;;;;;12.77;10.67;;;10.40;99.90;;;;;;5017044;28;20974;-67
2021/11/15 07:41:20;;;;;;;11.17;9.30;;;10.50;99.90;;;;;;5016985;28;20474;-66
2021/11/15 07:43:47;;;;;;;17.97;9.23;;;10.50;99.90;;;;;;5017445;28;20815;-66
2021/11/15 07:46:14;;;;;;;13.17;10.37;;;10.50;99.90;;;;;;5017038;28;20465;-68
2021/11/15 07:48:40;;;;;;;18.30;11.10;;;10.60;99.90;;;;;;5016641;28;20971;-69
2021/11/15 07:51:07;;;;;;;14.07;10.30;;;10.50;99.90;;;;;;5016613;28;20556;-67
2021/11/15 07:53:36;;;;;;;12.07;10.67;;;10.20;99.90;;;;;;5017013;28;20484;-67
2021/11/15 07:56:05;;;;;;;12.13;10.87;;;10.30;99.90;;;;;;5017301;28;20536;-67
2021/11/15 07:58:31;;;;;;;19.43;10.57;;;10.20;99.90;;;;;;5016705;28;20462;-67
2021/11/15 08:00:58;;;;;;;13.30;10.90;;;9.90;99.90;;;;;;5017575;28;20531;-68
2021/11/15 08:03:25;;;;;;;12.67;9.57;;;9.80;99.90;;;;;;5017574;28;20449;-68
2021/11/15 08:05:53;;;;;;;12.17;9.67;;;9.70;99.90;;;;;;5016476;28;20457;-67
2021/11/15 08:08:19;;;;;;;12.13;9.27;;;9.60;99.90;;;;;;5016193;28;20818;-68
2021/11/15 08:10:50;;;;;;;14.10;10.50;;;9.60;99.90;;;;;;5016172;28;20481;-67
2021/11/15 08:13:17;;;;;;;21.47;10.83;;;9.30;99.90;;;;;;5016282;28;20508;-67
2021/11/15 08:15:44;;;;;;;12.07;9.60;;;9.20;99.90;;;;;;5016361;28;20444;-69
2021/11/15 08:18:11;;;;;;;12.43;9.20;;;9.10;99.90;;;;;;5016346;28;20465;-66
2021/11/15 08:20:40;;;;;;;12.37;10.57;;;9.10;99.90;;;;;;5015817;28;20473;-68
2021/11/15 08:23:09;;;;;;;12.90;10.23;;;8.90;99.90;;;;;;5016031;28;20456;-66
2021/11/15 08:26:27;;;;;;;12.20;9.33;;;9.00;99.90;;;;;;5015859;28;20453;-66
2021/11/15 08:28:54;;;;;;;18.03;9.80;;;9.10;99.90;;;;;;5015804;28;20485;-67
2021/11/15 08:31:22;;;;;;;10.80;9.60;;;9.10;99.90;;;;;;5015782;28;20476;-67
2021/11/15 08:33:49;;;;;;;15.03;10.43;;;9.10;99.90;;;;;;5015673;28;20481;-67
2021/11/15 08:36:16;;;;;;;14.40;11.03;;;9.00;99.90;;;;;;5015623;28;20453;-67
2021/11/15 08:38:53;;;;;;;13.60;8.87;;;9.10;99.90;;;;;;5015522;28;20949;-67
2021/11/15 08:41:24;;;;;;;13.13;10.30;;;9.10;99.90;;;;;;5015802;28;20473;-67
2021/11/15 08:43:53;;;;;;;13.23;11.00;;;9.10;99.90;;;;;;5015847;28;20778;-67
2021/11/15 08:46:20;;;;;;;12.03;9.93;;;9.00;99.90;;;;;;5015513;28;20460;-68
2021/11/15 08:48:48;;;;;;;12.70;10.40;;;9.00;99.90;;;;;;5015583;28;20534;-67
2021/11/15 08:51:17;;;;;;;12.87;10.30;;;9.00;99.90;;;;;;5015436;28;20480;-67
2021/11/15 08:53:44;;;;;;;17.87;10.87;;;9.10;99.90;;;;;;5015419;28;20473;-68
2021/11/15 08:56:11;;;;;;;14.03;10.37;;;9.00;99.90;;;;;;5015577;28;20480;-68
2021/11/15 08:58:39;;;;;;;13.60;10.70;;;9.00;99.90;;;;;;5015065;28;20966;-67
2021/11/15 09:01:07;;;;;;;13.20;11.10;;;8.90;99.90;;;;;;5015266;28;20551;-67
2021/11/15 09:03:37;;;;;;;14.93;10.77;;;9.00;99.90;;;;;;5015344;28;20453;-67
2021/11/15 09:06:05;;;;;;;12.60;10.53;;;9.10;99.90;;;;;;5016056;28;20437;-68
2021/11/15 09:08:32;;;;;;;13.83;10.60;;;9.10;99.90;;;;;;5015263;28;20455;-68
2021/11/15 09:10:58;;;;;;;13.80;10.73;;;9.10;99.90;;;;;;5015217;28;20477;-67
2021/11/15 09:13:25;;;;;;;15.43;11.23;;;9.00;99.90;;;;;;5015188;28;20453;-67
2021/11/15 09:15:53;;;;;;;13.37;10.97;;;8.90;99.90;;;;;;5014842;28;20933;-67
2021/11/15 09:18:20;;;;;;;16.60;11.50;;;8.90;99.90;;;;;;5015190;28;20454;-68
2021/11/15 09:20:47;;;;;;;16.40;11.87;;;8.90;99.90;;;;;;5015239;28;20603;-68
2021/11/15 09:23:14;;;;;;;15.07;11.57;;;8.90;99.90;;;;;;5014976;28;20453;-68
2021/11/15 09:25:41;;;;;;;15.90;11.93;;;8.90;99.90;;;;;;5014809;28;20449;-67
2021/11/15 09:28:08;;;;;;;15.90;10.90;;;9.00;99.90;;;;;;5015551;28;20453;-68
2021/11/15 09:30:37;;;;;;;13.73;10.67;;;9.10;99.90;;;;;;5022334;28;20473;-68
2021/11/15 09:33:06;;;;;;;13.30;11.37;;;9.20;99.90;;;;;;5022121;28;20795;-68
2021/11/15 09:35:33;;;;;;;15.47;11.57;;;9.20;99.90;;;;;;5014632;28;20513;-68
2021/11/15 09:38:00;;;;;;;15.07;11.40;;;9.20;99.90;;;;;;5015925;28;20457;-68
2021/11/15 09:40:27;;;;;;;14.57;11.23;;;9.30;99.90;;;;;;5018823;28;20958;-67
2021/11/15 09:42:56;;;;;;;19.07;11.70;;;9.30;99.90;;;;;;5019126;28;20512;-67
2021/11/15 09:45:23;;;;;;;14.60;11.10;;;9.30;99.90;;;;;;5018890;28;20453;-68
2021/11/15 09:47:50;;;;;;;14.07;10.57;;;9.40;99.90;;;;;;5019889;28;20814;-68
2021/11/15 09:50:18;;;;;;;13.57;10.73;;;9.40;99.90;;;;;;5016064;28;20457;-68
2021/11/15 09:52:46;;;;;;;15.77;11.80;;;9.20;99.90;;;;;;5014748;28;20464;-66
2021/11/15 09:55:13;;;;;;;14.57;11.07;;;9.30;99.90;;;;;;5014708;28;20482;-67
2021/11/15 09:57:43;;;;;;;14.93;12.57;;;9.30;99.90;;;;;;5014120;28;20453;-68
2021/11/15 10:00:13;;;;;;;15.87;11.43;;;9.30;99.90;;;;;;5014614;28;20460;-67
2021/11/15 10:02:39;;;;;;;17.87;12.67;;;9.30;99.90;;;;;;5014490;28;20452;-68
2021/11/15 10:05:08;;;;;;;15.80;12.30;;;9.30;99.90;;;;;;5014286;28;20476;-68
2021/11/15 10:07:45;;;;;;;19.73;13.10;;;9.30;99.90;;;;;;5014367;28;20449;-67
2021/11/15 10:10:44;;;;;;;16.90;12.50;;;9.20;99.90;;;;;;5014364;28;20437;-67
2021/11/15 10:13:16;;;;;;;17.00;12.03;;;9.30;99.90;;;;;;4972775;28;20439;-67
2021/11/15 10:16:01;;;;;;;17.37;11.70;;;9.40;99.90;;;;;;5006462;28;20492;-67
2021/11/15 10:18:45;;;;;;;16.80;13.00;;;9.40;99.90;;;;;;5014145;28;20448;-67
2021/11/15 10:21:15;;;;;;;15.90;11.47;;;9.40;99.90;;;;;;5014082;28;20477;-67
2021/11/15 10:23:47;;;;;;;15.43;12.80;;;9.40;99.90;;;;;;5014210;28;20442;-67
2021/11/15 10:26:27;;;;;;;15.90;12.50;;;9.40;99.90;;;;;;5014121;28;20453;-67
2021/11/15 10:28:57;;;;;;;15.17;11.67;;;9.40;99.90;;;;;;5014105;28;20437;-67
2021/11/15 10:31:26;;;;;;;15.50;12.10;;;9.50;99.90;;;;;;5013882;28;20572;-67
2021/11/15 10:33:53;;;;;;;16.10;12.90;;;9.50;99.90;;;;;;5013822;28;20464;-68
2021/11/15 10:36:19;;;;;;;16.90;12.93;;;9.50;99.90;;;;;;5014552;28;20462;-66
2021/11/15 10:38:51;;;;;;;17.90;12.80;;;9.40;99.90;;;;;;5013959;28;20460;-68
2021/11/15 10:41:21;;;;;;;16.50;12.40;;;9.40;99.90;;;;;;5013859;28;20465;-67
2021/11/15 10:43:57;;;;;;;16.40;12.60;;;9.40;99.90;;;;;;5015207;28;20485;-67
2021/11/15 10:46:31;;;;;;;18.03;13.90;;;9.50;99.90;;;;;;5013908;28;20492;-67
2021/11/15 10:48:59;;;;;;;19.20;12.47;;;9.40;99.90;;;;;;5013818;28;20454;-67
2021/11/15 10:51:49;;;;;;;18.43;12.83;;;9.40;99.90;;;;;;5013608;28;20552;-67
2021/11/15 10:54:37;;;;;;;16.70;12.47;;;9.50;99.90;;;;;;5013637;28;20462;-67
2021/11/15 10:57:36;;;;;;;18.30;13.43;;;9.50;99.90;;;;;;5013639;28;20445;-67
2021/11/15 11:00:22;;;;;;;17.00;12.53;;;9.60;99.90;;;;;;5014052;28;20815;-68
2021/11/15 11:02:50;;;;;;;16.80;12.53;;;9.60;99.90;;;;;;5015325;28;20951;-68
2021/11/15 11:05:19;;;;;;;18.20;13.20;;;9.60;99.90;;;;;;5017298;28;20445;-68
2021/11/15 11:07:49;;;;;;;16.30;12.43;;;9.70;99.90;;;;;;5013728;28;20457;-67
2021/11/15 11:10:20;;;;;;;16.53;12.73;;;9.70;99.90;;;;;;5016619;28;20453;-67
2021/11/15 11:13:02;;;;;;;17.23;13.13;;;9.70;99.90;;;;;;5017689;28;20437;-67
2021/11/15 11:15:34;;;;;;;17.30;11.97;;;9.80;99.90;;;;;;5017411;28;20838;-67
2021/11/15 11:18:07;;;;;;;16.80;13.47;;;9.90;99.90;;;;;;5017487;28;20492;-67
2021/11/15 11:27:01;;;;;;;16.80;13.43;;;10.50;99.90;;;;;;5017138;28;20468;-68
2021/11/15 11:29:32;;;;;;;15.23;11.80;;;10.50;99.90;;;;;;5017136;28;20437;-67
2021/11/15 11:32:01;;;;;;;17.27;13.50;;;10.60;99.90;;;;;;5017085;28;20470;-68
2021/11/15 11:34:30;;;;;;;19.50;13.77;;;10.60;99.90;;;;;;5016917;28;20478;-67
2021/11/15 11:36:57;;;;;;;18.83;14.27;;;10.60;99.90;;;;;;5016977;28;20458;-67
2021/11/15 11:39:25;;;;;;;17.03;14.07;;;10.50;99.90;;;;;;5016881;28;20512;-67
2021/11/15 11:41:58;;;;;;;15.90;13.00;;;10.40;99.90;;;;;;5016839;28;20835;-68
2021/11/15 11:44:28;;;;;;;20.40;13.77;;;10.40;99.90;;;;;;5016775;28;20496;-68
2021/11/15 11:46:57;;;;;;;17.77;12.90;;;10.40;99.90;;;;;;5016702;28;20456;-68
2021/11/15 11:49:26;;;;;;;19.80;14.27;;;10.30;99.90;;;;;;5016471;28;20464;-68
2021/11/15 11:51:58;;;;;;;17.17;13.07;;;10.20;99.90;;;;;;5016309;28;20491;-67
2021/11/15 11:54:28;;;;;;;16.43;12.67;;;10.00;99.90;;;;;;5016803;28;20497;-67
2021/11/15 11:57:11;;;;;;;19.40;13.50;;;9.90;99.90;;;;;;5017059;28;20437;-67
2021/11/15 11:59:56;;;;;;;24.70;14.03;;;9.90;99.90;;;;;;5016342;28;20944;-68
2021/11/15 12:02:25;;;;;;;21.30;14.10;;;9.90;99.90;;;;;;5016513;28;20480;-70
2021/11/15 12:04:54;;;;;;;19.30;13.97;;;9.90;99.90;;;;;;5016539;28;20442;-68
2021/11/15 12:07:28;;;;;;;19.63;14.10;;;9.80;99.90;;;;;;5017582;28;20759;-69
2021/11/15 12:09:54;;;;;;;18.90;14.40;;;9.70;99.90;;;;;;5017306;28;20454;-69
2021/11/15 12:12:21;;;;;;;21.20;15.97;;;9.70;99.90;;;;;;5016495;28;20477;-69
2021/11/15 12:14:49;;;;;;;19.07;14.03;;;9.60;99.90;;;;;;5016291;28;20480;-69
2021/11/15 12:17:18;;;;;;;19.73;14.47;;;9.60;99.90;;;;;;5016197;28;20457;-68
2021/11/15 12:20:15;;;;;;;31.13;15.03;;;9.60;99.90;;;;;;5016177;28;20453;-69
2021/11/15 12:22:50;;;;;;;19.33;13.83;;;9.60;99.90;;;;;;5016147;28;20464;-70
2021/11/15 12:25:20;;;;;;;18.53;13.77;;;9.70;99.90;;;;;;5024062;28;20839;-69
2021/11/15 12:27:51;;;;;;;18.60;13.47;;;9.80;99.90;;;;;;5016551;28;20438;-69
2021/11/15 12:30:21;;;;;;;19.40;14.80;;;9.80;99.90;;;;;;5016740;28;20533;-69
2021/11/15 12:33:23;;;;;;;18.87;14.70;;;9.80;99.90;;;;;;5016585;28;20438;-69
2021/11/15 12:36:20;;;;;;;17.83;14.43;;;9.80;99.90;;;;;;5022083;28;20481;-69
2021/11/15 12:38:49;;;;;;;18.00;14.40;;;9.70;99.90;;;;;;5009696;28;20472;-68
2021/11/15 12:41:40;;;;;;;18.27;14.27;;;9.70;99.90;;;;;;5018116;28;20472;-69
2021/11/15 12:44:27;;;;;;;20.60;14.60;;;9.70;99.90;;;;;;5017563;28;20433;-68
2021/11/15 12:47:02;;;;;;;20.97;14.53;;;9.80;99.90;;;;;;5016250;28;20438;-66
2021/11/15 12:49:40;;;;;;;19.20;14.27;;;9.80;99.90;;;;;;5015884;28;20437;-67
2021/11/15 12:52:30;;;;;;;22.40;14.20;;;9.80;99.90;;;;;;5015698;28;20477;-66
2021/11/15 12:55:04;;;;;;;22.03;14.10;;;9.80;99.90;;;;;;5015737;28;20477;-66
2021/11/15 12:57:43;;;;;;;17.43;13.93;;;9.80;99.90;;;;;;5015366;28;20819;-67
2021/11/15 13:00:14;;;;;;;23.50;15.27;;;9.80;99.90;;;;;;5015591;28;20438;-68
2021/11/15 13:02:52;;;;;;;21.40;15.53;;;9.80;99.90;;;;;;5015450;28;20465;-68
2021/11/15 13:05:19;;;;;;;19.40;14.30;;;9.80;99.90;;;;;;5015336;28;20433;-67
2021/11/15 13:07:47;;;;;;;20.23;15.10;;;9.80;99.90;;;;;;5015652;28;20453;-68
2021/11/15 13:10:16;;;;;;;19.10;15.37;;;9.90;99.90;;;;;;5015677;28;20476;-72
2021/11/15 13:12:43;;;;;;;17.03;14.97;;;9.90;99.90;;;;;;5015466;28;20453;-68
2021/11/15 13:15:10;;;;;;;22.43;17.17;;;9.80;99.90;;;;;;5015750;28;20477;-68
2021/11/15 13:17:38;;;;;;;18.53;14.50;;;9.80;99.90;;;;;;5015607;28;20548;-68
2021/11/15 13:20:11;;;;;;;20.20;14.47;;;9.80;99.90;;;;;;5016042;28;20445;-68
2021/11/15 13:22:39;;;;;;;20.10;15.03;;;9.80;99.90;;;;;;5015439;28;20480;-67
2021/11/15 13:25:08;;;;;;;20.23;15.07;;;9.80;99.90;;;;;;5016479;28;20458;-67
2021/11/15 13:27:35;;;;;;;18.90;15.90;;;9.80;99.90;;;;;;5015182;28;20457;-68
2021/11/15 13:30:11;;;;;;;17.80;15.57;;;9.60;99.90;;;;;;5015638;28;20468;-68
2021/11/15 13:32:40;;;;;;;20.83;17.03;;;9.60;99.90;;;;;;5013488;28;20474;-67
2021/11/15 13:35:09;;;;;;;18.10;16.20;;;9.60;99.90;;;;;;5015342;28;20477;-67
2021/11/15 13:37:36;;;;;;;18.93;16.73;;;9.70;99.90;;;;;;5015223;28;20492;-68
2021/11/15 13:40:04;;;;;;;24.33;16.10;;;9.70;99.90;;;;;;5014824;28;20453;-68
2021/11/15 13:42:31;;;;;;;18.97;16.90;;;9.70;99.90;;;;;;5015539;28;20564;-68
2021/11/15 13:44:58;;;;;;;21.20;16.30;;;9.70;99.90;;;;;;5015096;28;20862;-68
2021/11/15 13:47:25;;;;;;;20.20;16.60;;;9.70;99.90;;;;;;5015156;28;20457;-68
2021/11/15 13:49:52;;;;;;;18.93;16.83;;;9.70;99.90;;;;;;5015094;28;20460;-68
2021/11/15 13:52:21;;;;;;;19.10;16.43;;;9.80;99.90;;;;;;5015291;28;20481;-67
2021/11/15 13:54:49;;;;;;;18.73;15.50;;;9.80;99.90;;;;;;5016504;28;20454;-67
2021/11/15 13:57:18;;;;;;;17.93;15.20;;;9.80;99.90;;;;;;5015163;28;20457;-68
2021/11/15 13:59:47;;;;;;;23.97;17.70;;;9.80;99.90;;;;;;5015820;28;20861;-68
2021/11/15 14:02:14;;;;;;;21.00;17.17;;;9.80;99.90;;;;;;5015350;28;20481;-68
2021/11/15 14:04:40;;;;;;;20.10;17.13;;;9.80;99.90;;;;;;5015097;28;20971;-68
2021/11/15 14:07:07;;;;;;;19.37;16.20;;;9.70;99.90;;;;;;5015550;28;20457;-68
2021/11/15 14:09:35;;;;;;;22.50;18.53;;;9.70;99.90;;;;;;5015754;28;20461;-67
2021/11/15 14:12:02;;;;;;;22.73;16.93;;;9.80;99.90;;;;;;5014740;28;20484;-68
2021/11/15 14:14:29;;;;;;;21.17;16.73;;;9.70;99.90;;;;;;5014493;28;20458;-68
2021/11/15 14:16:56;;;;;;;22.20;16.60;;;9.80;99.90;;;;;;5014228;28;20477;-67
2021/11/15 14:19:24;;;;;;;20.93;16.30;;;9.70;99.90;;;;;;5013928;28;20465;-68
2021/11/15 14:21:51;;;;;;;20.70;17.40;;;9.70;99.90;;;;;;5014727;28;20469;-67
2021/11/15 14:24:18;;;;;;;21.50;17.67;;;9.70;99.90;;;;;;5014883;28;20454;-67
2021/11/15 14:26:46;;;;;;;24.40;17.07;;;9.70;99.90;;;;;;5015376;28;20454;-67
2021/11/15 14:29:12;;;;;;;23.30;18.70;;;9.80;99.90;;;;;;5013623;28;20463;-67
2021/11/15 14:31:39;;;;;;;18.70;16.60;;;9.70;99.90;;;;;;5014594;28;20480;-67
2021/11/15 14:34:06;;;;;;;19.70;17.20;;;9.80;99.90;;;;;;5013967;28;20453;-66
2021/11/15 14:36:33;;;;;;;24.07;17.13;;;9.80;99.90;;;;;;5013988;28;20544;-67
2021/11/15 14:38:59;;;;;;;20.70;17.40;;;9.70;99.90;;;;;;5013943;28;20452;-68
2021/11/15 14:41:27;;;;;;;23.10;17.43;;;9.70;99.90;;;;;;5014093;28;20485;-67
2021/11/15 14:43:55;;;;;;;21.93;16.30;;;9.60;99.90;;;;;;5014502;28;20955;-68
2021/11/15 14:46:22;;;;;;;22.63;15.47;;;9.50;99.90;;;;;;5017778;28;20956;-67
2021/11/15 14:48:49;;;;;;;19.30;15.30;;;9.40;99.90;;;;;;5017719;28;20457;-66
2021/11/15 14:51:16;;;;;;;18.30;14.57;;;9.40;99.90;;;;;;5017592;28;20511;-71
2021/11/15 14:53:43;;;;;;;16.63;13.87;;;9.40;99.90;;;;;;5017951;28;20459;-71
2021/11/15 14:56:10;;;;;;;20.50;15.03;;;9.40;99.90;;;;;;5017866;28;20547;-71
2021/11/15 14:58:37;;;;;;;17.77;14.97;;;9.30;99.90;;;;;;5017701;28;20453;-72
2021/11/15 15:01:05;;;;;;;16.53;14.10;;;9.30;99.90;;;;;;5018435;28;20507;-71
2021/11/15 15:03:32;;;;;;;18.00;13.93;;;9.40;99.90;;;;;;5017853;28;20457;-71
2021/11/15 15:05:59;;;;;;;18.33;14.17;;;9.30;99.90;;;;;;5017449;28;20505;-72
2021/11/15 15:08:26;;;;;;;15.90;13.60;;;9.30;99.90;;;;;;5017532;28;20457;-70
2021/11/15 15:10:53;;;;;;;16.90;14.47;;;9.20;99.90;;;;;;5017356;28;20476;-71
2021/11/15 15:13:19;;;;;;;15.87;14.20;;;9.20;99.90;;;;;;5017607;28;20807;-72
2021/11/15 15:15:46;;;;;;;20.93;14.13;;;9.20;99.90;;;;;;5017377;28;20811;-71
2021/11/15 15:18:14;;;;;;;16.90;14.03;;;9.10;99.90;;;;;;5017712;28;20464;-71
2021/11/15 15:20:42;;;;;;;16.07;12.80;;;9.00;99.90;;;;;;5017583;28;20473;-70
2021/11/15 15:23:11;;;;;;;16.87;14.37;;;9.00;99.90;;;;;;5017909;28;20457;-72
2021/11/15 15:25:38;;;;;;;15.90;14.13;;;9.00;99.90;;;;;;5017205;28;20503;-72
2021/11/15 15:28:05;;;;;;;16.93;13.77;;;9.10;99.90;;;;;;5017513;28;20786;-72
2021/11/15 15:30:35;;;;;;;17.10;14.87;;;9.10;99.90;;;;;;5017534;28;20457;-71
2021/11/15 15:33:02;;;;;;;20.40;15.30;;;9.00;99.90;;;;;;5025915;28;20453;-71
2021/11/15 15:35:30;;;;;;;20.53;15.43;;;8.90;99.90;;;;;;5018202;28;20913;-72
2021/11/15 15:37:57;;;;;;;16.37;14.60;;;8.90;99.90;;;;;;5018099;28;20461;-72
2021/11/15 15:40:26;;;;;;;17.50;14.60;;;8.90;99.90;;;;;;5019559;28;20445;-70
2021/11/15 15:42:57;;;;;;;17.10;13.97;;;8.90;99.90;;;;;;5017134;28;20545;-71
2021/11/15 15:45:24;;;;;;;25.20;14.10;;;8.80;99.90;;;;;;5016856;28;20444;-71
2021/11/15 15:47:52;;;;;;;23.97;16.80;;;8.80;99.90;;;;;;5016849;28;20457;-71
2021/11/15 15:50:19;;;;;;;18.83;16.13;;;8.80;99.90;;;;;;5016495;28;20457;-71
2021/11/15 15:52:48;;;;;;;19.93;16.40;;;8.70;99.90;;;;;;5016689;28;20453;-71
2021/11/15 15:55:16;;;;;;;16.57;14.73;;;8.70;99.90;;;;;;5015834;28;20464;-70
2021/11/15 15:57:44;;;;;;;23.63;15.10;;;8.60;99.90;;;;;;5016289;28;20516;-71
2021/11/15 16:00:13;;;;;;;20.87;15.27;;;8.70;99.90;;;;;;5016400;28;20453;-71
2021/11/15 16:02:44;;;;;;;18.43;16.00;;;8.70;99.90;;;;;;5017091;28;20469;-72
2021/11/15 16:05:37;;;;;;;17.87;15.90;;;8.70;99.90;;;;;;5016453;28;20532;-70
2021/11/15 16:13:54;;;;;;;18.53;16.30;;;8.80;99.90;;;;;;5016269;28;20540;-71
2021/11/15 16:16:26;;;;;;;17.23;15.20;;;8.80;99.90;;;;;;5016752;28;20465;-71
2021/11/15 16:18:54;;;;;;;20.23;16.40;;;8.80;99.90;;;;;;5017367;28;20580;-71
2021/11/15 16:21:21;;;;;;;20.10;16.40;;;8.80;99.90;;;;;;5016262;28;20504;-68
2021/11/15 16:23:49;;;;;;;19.90;16.53;;;8.90;99.90;;;;;;5016265;28;20456;-69
2021/11/15 16:26:16;;;;;;;24.43;16.90;;;8.90;99.90;;;;;;5016057;28;20811;-69
2021/11/15 16:28:43;;;;;;;19.17;15.60;;;8.90;99.90;;;;;;5016807;28;20805;-69
2021/11/15 16:31:10;;;;;;;18.20;15.17;;;8.90;99.90;;;;;;5015799;28;20976;-69
2021/11/15 16:33:37;;;;;;;21.43;16.57;;;9.00;99.90;;;;;;5015936;28;20449;-69
2021/11/15 16:36:04;;;;;;;20.53;17.43;;;8.90;99.90;;;;;;5015935;28;20481;-69
2021/11/15 16:38:31;;;;;;;21.30;17.73;;;8.90;99.90;;;;;;5015586;28;20461;-69
2021/11/15 16:40:59;;;;;;;19.20;17.00;;;8.90;99.90;;;;;;5015783;28;20485;-69
2021/11/15 16:43:26;;;;;;;21.80;18.00;;;9.00;99.90;;;;;;5016139;28;20453;-68
2021/11/15 16:45:53;;;;;;;20.73;16.60;;;8.90;99.90;;;;;;5015993;28;20453;-68
2021/11/15 16:48:20;;;;;;;23.27;19.40;;;9.00;99.90;;;;;;5016385;28;20944;-68
2021/11/15 16:50:47;;;;;;;20.50;17.87;;;8.90;99.90;;;;;;5015731;28;20481;-69
2021/11/15 16:53:15;;;;;;;20.77;18.07;;;9.00;99.90;;;;;;5015300;28;20449;-68
2021/11/15 16:55:42;;;;;;;21.83;17.90;;;9.00;99.90;;;;;;5015372;28;20438;-68
2021/11/15 16:58:12;;;;;;;22.70;18.23;;;9.00;99.90;;;;;;5015220;28;20943;-68
2021/11/15 17:00:42;;;;;;;22.03;17.33;;;9.00;99.90;;;;;;5015592;28;20492;-68
2021/11/15 17:03:11;;;;;;;20.40;17.40;;;9.00;99.90;;;;;;5015772;28;20437;-68
2021/11/15 17:05:39;;;;;;;20.27;16.80;;;9.00;99.90;;;;;;5015551;28;20453;-69
2021/11/15 17:08:09;;;;;;;21.60;17.70;;;9.00;99.90;;;;;;5015643;28;20465;-71
2021/11/15 17:10:41;;;;;;;20.80;18.10;;;9.00;99.90;;;;;;5016049;28;20457;-72
2021/11/15 17:13:12;;;;;;;22.13;17.70;;;9.00;99.90;;;;;;5016913;28;20987;-71
2021/11/15 17:15:40;;;;;;;21.53;18.07;;;9.00;99.90;;;;;;5016003;28;20500;-71
2021/11/15 17:18:07;;;;;;;20.10;16.90;;;9.00;99.90;;;;;;5015791;28;20532;-69
2021/11/15 17:20:34;;;;;;;20.57;17.87;;;9.00;99.90;;;;;;5016645;28;20480;-71
2021/11/15 17:23:01;;;;;;;21.40;19.10;;;9.00;99.90;;;;;;5015222;28;20457;-71
2021/11/15 17:25:28;;;;;;;23.50;19.03;;;9.00;99.90;;;;;;5015534;28;20460;-71
2021/11/15 17:28:08;;;;;;;23.87;20.13;;;8.90;99.90;;;;;;5015559;28;20471;-68
2021/11/15 17:30:36;;;;;;;25.90;17.70;;;9.00;99.90;;;;;;5022889;28;20438;-70
2021/11/15 17:33:03;;;;;;;24.87;19.23;;;9.00;99.90;;;;;;5016079;28;20825;-70
2021/11/15 17:35:29;;;;;;;20.30;17.43;;;9.00;99.90;;;;;;5015192;28;20461;-68
2021/11/15 17:37:56;;;;;;;22.13;19.73;;;8.90;99.90;;;;;;5014585;28;20867;-72
2021/11/15 17:40:23;;;;;;;24.63;19.17;;;8.90;99.90;;;;;;5015240;28;20457;-71
2021/11/15 17:42:49;;;;;;;23.07;17.77;;;8.90;99.90;;;;;;5015404;28;20457;-72
2021/11/15 17:45:17;;;;;;;25.20;18.17;;;8.90;99.90;;;;;;5015601;28;20457;-71
2021/11/15 17:47:46;;;;;;;26.10;18.53;;;8.90;99.90;;;;;;5023464;28;20453;-71
2021/11/15 17:50:16;;;;;;;19.70;17.10;;;8.80;99.90;;;;;;5023726;28;20460;-72
2021/11/15 17:52:47;;;;;;;20.10;17.60;;;8.80;99.90;;;;;;5018218;28;20453;-70
2021/11/15 17:55:24;;;;;;;25.17;18.80;;;8.80;99.90;;;;;;5015670;28;20433;-72
2021/11/15 17:57:51;;;;;;;21.77;19.03;;;8.70;99.90;;;;;;5015618;28;20472;-71
2021/11/15 18:00:23;;;;;;;23.53;18.60;;;8.70;99.90;;;;;;5014664;28;20454;-70